Time;durP1;ratioP1;P1;durP2;ratioP2;P2;SDS_P1;SDS_P2;PMS_P1;PMS_P2;Temp;Humidity;BMP_temperature;BMP_pressure;BME280_temperature;BME280_humidity;BME280_pressure;Samples;Min_cycle;Max_cycle;Signal;HPM_P1;HPM_P2
2023/12/06 00:00:57;;;;;;;112.93;32.40;;;;;;;;;;5020848;28;20025;-79
2023/12/06 00:03:23;;;;;;;127.33;32.40;;;;;;;;;;5037041;28;20116;-80
2023/12/06 00:05:51;;;;;;;128.40;32.97;;;;;;;;;;5021471;28;20528;-79
2023/12/06 00:08:17;;;;;;;112.13;32.43;;;;;;;;;;5021658;28;20025;-79
2023/12/06 00:10:43;;;;;;;111.30;31.07;;;;;;;;;;5022762;28;20029;-78
2023/12/06 00:13:09;;;;;;;104.90;30.03;;;;;;;;;;5038667;28;20033;-79
2023/12/06 00:15:35;;;;;;;107.13;30.37;;;;;;;;;;5021487;28;20030;-77
2023/12/06 00:18:01;;;;;;;109.17;30.63;;;;;;;;;;5020964;28;20065;-78
2023/12/06 00:20:27;;;;;;;102.63;28.80;;;;;;;;;;5033146;28;20994;-79
2023/12/06 00:22:53;;;;;;;108.60;31.40;;;;;;;;;;5016060;28;20171;-79
2023/12/06 00:25:20;;;;;;;106.47;31.70;;;;;;;;;;5017001;28;20076;-79
2023/12/06 00:27:46;;;;;;;112.53;31.57;;;;;;;;;;5030599;28;20026;-78
2023/12/06 00:30:14;;;;;;;111.00;30.17;;;;;;;;;;5014237;28;20477;-80
2023/12/06 00:32:42;;;;;;;104.83;29.20;;;;;;;;;;5017314;28;20087;-80
2023/12/06 00:35:10;;;;;;;105.17;28.43;;;;;;;;;;5014495;28;20041;-79
2023/12/06 00:37:36;;;;;;;101.53;27.97;;;;;;;;;;5016721;28;20121;-80
2023/12/06 00:40:03;;;;;;;100.83;27.57;;;;;;;;;;5017060;28;20033;-79
2023/12/06 00:42:29;;;;;;;107.13;28.30;;;;;;;;;;5007769;28;20127;-79
2023/12/06 00:44:55;;;;;;;94.10;26.93;;;;;;;;;;5031713;28;20394;-80
2023/12/06 00:47:21;;;;;;;94.23;28.07;;;;;;;;;;5016240;28;20052;-79
2023/12/06 00:49:47;;;;;;;106.70;29.70;;;;;;;;;;5023456;28;20068;-78
2023/12/06 00:52:13;;;;;;;111.30;29.70;;;;;;;;;;5030985;28;20033;-79
2023/12/06 00:54:38;;;;;;;129.17;32.43;;;;;;;;;;5016595;28;20040;-80
2023/12/06 00:57:04;;;;;;;123.80;35.03;;;;;;;;;;5017851;28;20064;-80
2023/12/06 00:59:30;;;;;;;131.43;35.50;;;;;;;;;;5016242;28;20069;-80
2023/12/06 01:01:56;;;;;;;144.73;38.40;;;;;;;;;;5017840;28;20033;-79
2023/12/06 01:04:22;;;;;;;147.50;37.43;;;;;;;;;;5015440;28;20346;-79
2023/12/06 01:06:48;;;;;;;147.03;36.73;;;;;;;;;;5033727;28;20036;-79
2023/12/06 01:09:14;;;;;;;148.43;41.13;;;;;;;;;;5016477;28;20029;-80
2023/12/06 01:11:40;;;;;;;153.87;40.97;;;;;;;;;;5034063;28;20151;-80
2023/12/06 01:14:06;;;;;;;150.03;40.60;;;;;;;;;;5033398;28;21656;-80
2023/12/06 01:16:32;;;;;;;164.70;41.90;;;;;;;;;;5032152;28;20080;-80
2023/12/06 01:19:01;;;;;;;145.90;38.90;;;;;;;;;;5015467;28;20040;-80
2023/12/06 01:21:29;;;;;;;158.37;40.27;;;;;;;;;;5032990;28;20048;-80
2023/12/06 01:23:55;;;;;;;170.57;42.40;;;;;;;;;;5032881;28;20025;-80
2023/12/06 01:26:21;;;;;;;161.73;42.00;;;;;;;;;;5033749;28;20039;-79
2023/12/06 01:28:47;;;;;;;160.30;42.60;;;;;;;;;;5015421;28;20053;-79
2023/12/06 01:31:13;;;;;;;173.70;45.90;;;;;;;;;;5016241;28;20025;-78
2023/12/06 01:33:39;;;;;;;181.23;45.67;;;;;;;;;;5015121;28;20099;-78
2023/12/06 01:36:05;;;;;;;157.97;44.53;;;;;;;;;;5015728;28;20037;-79
2023/12/06 01:38:31;;;;;;;185.00;45.33;;;;;;;;;;5016310;28;20044;-81
2023/12/06 01:40:57;;;;;;;171.93;42.30;;;;;;;;;;5013217;28;20033;-79
2023/12/06 01:43:23;;;;;;;164.47;42.80;;;;;;;;;;5015631;28;20037;-79
2023/12/06 01:45:49;;;;;;;172.57;44.93;;;;;;;;;;5016224;28;20025;-80
2023/12/06 01:48:17;;;;;;;167.70;43.60;;;;;;;;;;5015577;28;20437;-79
2023/12/06 01:50:45;;;;;;;171.17;43.50;;;;;;;;;;5033845;28;20098;-80
2023/12/06 01:53:11;;;;;;;177.33;46.53;;;;;;;;;;5015142;28;20033;-83
2023/12/06 01:55:37;;;;;;;189.93;47.33;;;;;;;;;;5016398;28;20125;-80
2023/12/06 01:58:03;;;;;;;184.20;47.60;;;;;;;;;;5015049;28;20441;-79
2023/12/06 02:00:30;;;;;;;197.50;51.37;;;;;;;;;;5031675;28;20040;-79
2023/12/06 02:02:56;;;;;;;201.57;49.57;;;;;;;;;;5013358;28;20040;-82
2023/12/06 02:05:23;;;;;;;222.60;49.73;;;;;;;;;;5015480;28;20029;-79
2023/12/06 02:07:49;;;;;;;226.33;52.07;;;;;;;;;;5031191;28;20026;-79
2023/12/06 02:10:18;;;;;;;237.77;51.93;;;;;;;;;;5015398;28;20434;-80
2023/12/06 02:12:44;;;;;;;226.00;54.50;;;;;;;;;;5015748;28;20029;-84
2023/12/06 02:15:11;;;;;;;221.00;51.27;;;;;;;;;;5015570;28;20034;-80
2023/12/06 02:17:37;;;;;;;229.13;53.27;;;;;;;;;;5018246;28;20033;-79
2023/12/06 02:20:04;;;;;;;250.23;58.13;;;;;;;;;;5012338;28;20037;-79
2023/12/06 02:22:30;;;;;;;247.10;55.73;;;;;;;;;;5034161;28;20088;-79
2023/12/06 02:24:57;;;;;;;255.30;57.80;;;;;;;;;;5015944;28;20022;-81
2023/12/06 02:27:23;;;;;;;254.63;57.90;;;;;;;;;;5014817;28;20025;-79
2023/12/06 02:29:50;;;;;;;267.13;58.33;;;;;;;;;;5013808;28;20524;-81
2023/12/06 02:32:16;;;;;;;270.07;61.30;;;;;;;;;;5032609;28;20072;-84
2023/12/06 02:34:42;;;;;;;288.47;65.10;;;;;;;;;;5031555;28;20053;-79
2023/12/06 02:37:09;;;;;;;280.23;61.63;;;;;;;;;;5015282;28;20394;-80
2023/12/06 02:39:36;;;;;;;279.77;61.30;;;;;;;;;;5015407;28;20029;-78
2023/12/06 02:42:02;;;;;;;274.70;61.40;;;;;;;;;;5013284;28;20040;-82
2023/12/06 02:44:28;;;;;;;288.37;63.00;;;;;;;;;;5026085;28;20031;-82
2023/12/06 02:46:57;;;;;;;288.53;62.43;;;;;;;;;;5013202;28;20272;-79
2023/12/06 02:49:23;;;;;;;278.60;59.67;;;;;;;;;;5022847;28;20029;-80
2023/12/06 02:51:49;;;;;;;262.87;62.87;;;;;;;;;;5013813;28;20284;-80
2023/12/06 02:54:15;;;;;;;277.33;63.07;;;;;;;;;;5024164;28;20037;-80
2023/12/06 02:56:40;;;;;;;260.97;64.30;;;;;;;;;;5024776;28;20588;-79
2023/12/06 02:59:06;;;;;;;276.50;64.33;;;;;;;;;;5025832;28;20033;-79
2023/12/06 03:01:32;;;;;;;247.80;64.83;;;;;;;;;;5026192;28;20044;-80
2023/12/06 03:03:58;;;;;;;228.40;58.77;;;;;;;;;;5012671;28;20049;-78
2023/12/06 03:06:24;;;;;;;248.07;60.70;;;;;;;;;;5017648;28;22109;-80
2023/12/06 03:08:50;;;;;;;257.63;60.40;;;;;;;;;;5026719;28;20035;-81
2023/12/06 03:11:16;;;;;;;241.77;60.77;;;;;;;;;;5015434;28;20040;-79
2023/12/06 03:13:42;;;;;;;237.20;63.93;;;;;;;;;;5035696;28;20422;-80
2023/12/06 03:16:08;;;;;;;231.47;61.90;;;;;;;;;;5015680;28;20033;-81
2023/12/06 03:18:35;;;;;;;219.90;57.77;;;;;;;;;;5018312;28;20112;-78
2023/12/06 03:21:01;;;;;;;205.30;57.63;;;;;;;;;;5025904;28;21914;-81
2023/12/06 03:23:27;;;;;;;203.27;58.13;;;;;;;;;;5016523;28;20094;-78
2023/12/06 03:25:55;;;;;;;214.73;58.13;;;;;;;;;;5015940;28;20453;-79
2023/12/06 03:28:21;;;;;;;207.43;56.03;;;;;;;;;;5017554;28;20038;-80
2023/12/06 03:30:47;;;;;;;197.30;58.73;;;;;;;;;;5035920;28;20100;-79
2023/12/06 03:33:13;;;;;;;187.00;56.50;;;;;;;;;;5018296;28;20033;-81
2023/12/06 03:35:39;;;;;;;205.63;56.03;;;;;;;;;;5016077;28;20029;-79
2023/12/06 03:38:07;;;;;;;179.50;55.17;;;;;;;;;;5016790;28;20039;-81
2023/12/06 03:40:33;;;;;;;175.50;53.33;;;;;;;;;;5035460;28;20457;-79
2023/12/06 03:42:59;;;;;;;180.77;54.90;;;;;;;;;;5016070;28;20090;-80
2023/12/06 03:45:25;;;;;;;173.37;53.13;;;;;;;;;;5017289;28;20047;-79
2023/12/06 03:47:53;;;;;;;178.07;55.20;;;;;;;;;;5029144;28;20049;-79
2023/12/06 03:50:19;;;;;;;156.57;51.93;;;;;;;;;;5013866;28;20030;-80
2023/12/06 03:52:45;;;;;;;173.13;54.27;;;;;;;;;;5029718;28;20726;-80
2023/12/06 03:55:11;;;;;;;159.53;50.00;;;;;;;;;;5017472;28;20037;-79
2023/12/06 03:57:37;;;;;;;151.57;52.10;;;;;;;;;;5031888;28;20064;-82
2023/12/06 04:00:04;;;;;;;161.07;52.50;;;;;;;;;;5016249;28;20441;-80
2023/12/06 04:02:30;;;;;;;162.87;52.10;;;;;;;;;;5029910;28;20029;-79
2023/12/06 04:04:56;;;;;;;163.97;53.90;;;;;;;;;;5025274;28;20033;-82
2023/12/06 04:07:22;;;;;;;143.47;50.43;;;;;;;;;;5032891;28;20086;-81
2023/12/06 04:09:48;;;;;;;144.93;47.93;;;;;;;;;;5025384;28;20029;-80
2023/12/06 04:12:14;;;;;;;143.13;46.43;;;;;;;;;;5029815;28;20034;-79
2023/12/06 04:14:41;;;;;;;152.23;51.47;;;;;;;;;;5025557;28;20425;-82
2023/12/06 04:17:07;;;;;;;165.13;50.03;;;;;;;;;;5015868;28;20030;-81
2023/12/06 04:19:33;;;;;;;164.60;51.83;;;;;;;;;;5016847;28;20014;-81
2023/12/06 04:21:59;;;;;;;164.97;52.43;;;;;;;;;;5030383;28;20022;-79
2023/12/06 04:24:25;;;;;;;163.73;50.33;;;;;;;;;;5018915;28;20771;-79
2023/12/06 04:26:51;;;;;;;181.73;51.93;;;;;;;;;;5017127;28;20091;-82
2023/12/06 04:29:17;;;;;;;167.90;53.70;;;;;;;;;;5018250;28;20061;-80
2023/12/06 04:31:43;;;;;;;176.20;50.20;;;;;;;;;;5029478;28;20048;-80
2023/12/06 04:34:11;;;;;;;174.60;50.20;;;;;;;;;;5029283;28;20030;-79
2023/12/06 04:36:38;;;;;;;179.80;54.07;;;;;;;;;;5012535;28;20107;-82
2023/12/06 04:39:06;;;;;;;188.20;54.50;;;;;;;;;;5027934;28;20026;-78
2023/12/06 04:41:35;;;;;;;177.77;54.20;;;;;;;;;;5027320;28;20029;-79
2023/12/06 04:44:01;;;;;;;183.97;53.67;;;;;;;;;;5019468;28;20041;-79
2023/12/06 04:46:27;;;;;;;193.13;53.40;;;;;;;;;;5019318;28;20041;-80
2023/12/06 04:48:53;;;;;;;179.60;50.30;;;;;;;;;;5019259;28;20083;-79
2023/12/06 04:51:19;;;;;;;190.40;54.77;;;;;;;;;;5006446;28;20120;-79
2023/12/06 04:53:45;;;;;;;192.37;52.27;;;;;;;;;;5015774;28;20330;-78
2023/12/06 04:56:12;;;;;;;188.23;52.83;;;;;;;;;;5049040;28;20037;-78
2023/12/06 04:58:39;;;;;;;190.17;53.53;;;;;;;;;;5030006;28;20121;-80
2023/12/06 05:01:04;;;;;;;185.10;50.67;;;;;;;;;;5018898;28;20033;-79
2023/12/06 05:03:31;;;;;;;187.03;53.53;;;;;;;;;;5018941;28;20351;-79
2023/12/06 05:05:57;;;;;;;188.97;52.27;;;;;;;;;;5032034;28;20564;-77
2023/12/06 05:08:23;;;;;;;180.17;50.43;;;;;;;;;;5015204;28;20036;-78
2023/12/06 05:10:51;;;;;;;191.83;53.27;;;;;;;;;;5035286;28;20029;-79
2023/12/06 05:13:17;;;;;;;193.67;55.27;;;;;;;;;;5034708;28;20037;-79
2023/12/06 05:15:44;;;;;;;199.10;53.43;;;;;;;;;;5018291;28;20021;-78
2023/12/06 05:18:10;;;;;;;186.83;52.10;;;;;;;;;;5018582;28;20450;-78
2023/12/06 05:20:37;;;;;;;221.13;57.77;;;;;;;;;;5012333;28;20396;-78
2023/12/06 05:23:03;;;;;;;193.13;54.10;;;;;;;;;;5018475;28;20030;-79
2023/12/06 05:25:29;;;;;;;185.20;55.67;;;;;;;;;;5018720;28;20036;-80
2023/12/06 05:27:55;;;;;;;194.07;55.33;;;;;;;;;;5019114;28;20021;-80
2023/12/06 05:30:21;;;;;;;186.07;50.87;;;;;;;;;;5023192;28;20038;-80
2023/12/06 05:32:47;;;;;;;173.00;50.60;;;;;;;;;;5015203;28;20040;-79
2023/12/06 05:35:13;;;;;;;169.03;51.37;;;;;;;;;;5034630;28;20030;-78
2023/12/06 05:37:39;;;;;;;174.93;49.93;;;;;;;;;;5018967;28;20026;-81
2023/12/06 05:40:06;;;;;;;147.53;47.60;;;;;;;;;;5037962;28;20426;-78
2023/12/06 05:42:32;;;;;;;171.73;51.37;;;;;;;;;;5004675;28;20671;-79
2023/12/06 05:44:58;;;;;;;158.57;49.70;;;;;;;;;;5016147;28;20025;-80
2023/12/06 05:47:25;;;;;;;152.07;47.83;;;;;;;;;;5018273;28;20029;-79
2023/12/06 05:49:53;;;;;;;170.40;50.40;;;;;;;;;;5007644;28;20044;-78
2023/12/06 05:52:19;;;;;;;158.50;51.90;;;;;;;;;;5009179;28;20112;-78
2023/12/06 05:54:45;;;;;;;154.90;48.33;;;;;;;;;;5015816;28;20059;-79
2023/12/06 05:57:11;;;;;;;153.83;50.47;;;;;;;;;;5009420;28;20129;-78
2023/12/06 05:59:37;;;;;;;148.87;46.53;;;;;;;;;;5017999;28;20021;-80
2023/12/06 06:02:03;;;;;;;141.40;49.37;;;;;;;;;;5017825;28;20025;-78
2023/12/06 06:04:29;;;;;;;151.80;49.90;;;;;;;;;;5034088;28;20351;-79
2023/12/06 06:06:55;;;;;;;139.67;50.13;;;;;;;;;;5029487;28;20029;-81
2023/12/06 06:09:21;;;;;;;148.20;48.87;;;;;;;;;;5034144;28;20033;-83
2023/12/06 06:11:47;;;;;;;147.57;52.70;;;;;;;;;;5016411;28;20037;-80
2023/12/06 06:14:14;;;;;;;141.90;48.80;;;;;;;;;;5017258;28;20357;-80
2023/12/06 06:16:39;;;;;;;131.07;48.67;;;;;;;;;;5034602;28;20025;-78
2023/12/06 06:19:05;;;;;;;140.53;48.70;;;;;;;;;;5015877;28;20430;-78
2023/12/06 06:21:31;;;;;;;134.50;49.83;;;;;;;;;;5033648;28;20093;-82
2023/12/06 06:23:57;;;;;;;135.30;48.93;;;;;;;;;;5016364;28;20087;-78
2023/12/06 06:26:24;;;;;;;148.77;51.27;;;;;;;;;;5034089;28;20029;-77
2023/12/06 06:28:52;;;;;;;132.40;49.93;;;;;;;;;;5017469;28;20029;-79
2023/12/06 06:31:18;;;;;;;133.67;46.30;;;;;;;;;;5026027;28;20043;-80
2023/12/06 06:33:47;;;;;;;129.73;50.63;;;;;;;;;;5026624;28;20029;-79
2023/12/06 06:36:13;;;;;;;122.97;47.13;;;;;;;;;;5025361;28;20037;-79
2023/12/06 06:38:41;;;;;;;124.27;46.80;;;;;;;;;;5014336;28;20519;-78
2023/12/06 06:41:07;;;;;;;132.67;49.17;;;;;;;;;;5019246;28;20482;-78
2023/12/06 06:43:36;;;;;;;134.60;47.80;;;;;;;;;;5032439;28;20030;-78
2023/12/06 06:46:03;;;;;;;126.40;46.43;;;;;;;;;;5036379;28;20018;-78
2023/12/06 06:48:28;;;;;;;117.37;45.57;;;;;;;;;;5016635;28;20033;-80
2023/12/06 06:50:54;;;;;;;113.60;43.47;;;;;;;;;;5018847;28;20176;-79
2023/12/06 06:53:20;;;;;;;122.43;44.07;;;;;;;;;;5035904;28;20025;-78
2023/12/06 06:55:48;;;;;;;122.57;49.20;;;;;;;;;;5018979;28;20211;-78
2023/12/06 06:58:16;;;;;;;131.03;48.33;;;;;;;;;;5017789;28;20149;-80
2023/12/06 07:00:45;;;;;;;123.30;46.20;;;;;;;;;;5018614;28;20048;-78
2023/12/06 07:03:11;;;;;;;124.40;48.87;;;;;;;;;;5035292;28;20040;-78
2023/12/06 07:05:37;;;;;;;117.67;45.73;;;;;;;;;;5035175;28;20096;-78
2023/12/06 07:08:03;;;;;;;125.90;48.10;;;;;;;;;;5017928;28;20087;-78
2023/12/06 07:10:29;;;;;;;132.40;47.57;;;;;;;;;;5018761;28;20039;-79
2023/12/06 07:12:57;;;;;;;123.47;47.40;;;;;;;;;;5018111;28;20029;-78
2023/12/06 07:15:25;;;;;;;129.20;50.83;;;;;;;;;;5017640;28;20461;-78
2023/12/06 07:17:51;;;;;;;127.27;48.57;;;;;;;;;;5017400;28;20025;-78
2023/12/06 07:20:17;;;;;;;129.67;52.50;;;;;;;;;;5018590;28;20044;-78
2023/12/06 07:22:43;;;;;;;134.53;50.70;;;;;;;;;;5018551;28;20117;-78
2023/12/06 07:25:09;;;;;;;127.73;50.07;;;;;;;;;;5018292;28;20026;-79
2023/12/06 07:27:35;;;;;;;123.90;50.87;;;;;;;;;;5035952;28;20327;-81
2023/12/06 07:30:04;;;;;;;129.80;48.87;;;;;;;;;;5034203;28;20083;-77
2023/12/06 07:32:30;;;;;;;121.00;47.80;;;;;;;;;;5017398;28;20029;-78
2023/12/06 07:34:56;;;;;;;118.63;50.17;;;;;;;;;;5018568;28;20424;-78
2023/12/06 07:37:22;;;;;;;109.73;48.30;;;;;;;;;;5018172;28;20033;-79
2023/12/06 07:39:48;;;;;;;120.83;48.30;;;;;;;;;;5016733;28;20335;-78
2023/12/06 07:42:14;;;;;;;116.73;48.47;;;;;;;;;;5017248;28;20128;-78
2023/12/06 07:44:40;;;;;;;111.73;48.87;;;;;;;;;;5017321;28;20026;-78
2023/12/06 07:47:06;;;;;;;109.20;47.47;;;;;;;;;;5015865;28;20095;-78
2023/12/06 07:49:32;;;;;;;127.93;49.70;;;;;;;;;;5017177;28;20036;-78
2023/12/06 07:51:58;;;;;;;111.40;45.03;;;;;;;;;;5016466;28;20715;-79
2023/12/06 07:54:25;;;;;;;115.20;45.00;;;;;;;;;;5033549;28;20129;-78
2023/12/06 07:56:51;;;;;;;111.63;45.27;;;;;;;;;;5016803;28;20493;-78
2023/12/06 07:59:19;;;;;;;111.93;43.63;;;;;;;;;;5017710;28;20120;-78
2023/12/06 08:01:47;;;;;;;99.97;43.23;;;;;;;;;;5016541;28;20477;-78
2023/12/06 08:04:15;;;;;;;98.90;43.67;;;;;;;;;;5017062;28;20095;-78
2023/12/06 08:06:43;;;;;;;99.97;43.23;;;;;;;;;;5016715;28;20326;-78
2023/12/06 08:09:12;;;;;;;94.33;41.23;;;;;;;;;;5012973;28;20026;-77
2023/12/06 08:11:38;;;;;;;103.07;42.53;;;;;;;;;;5033224;28;20108;-77
2023/12/06 08:14:04;;;;;;;99.97;44.17;;;;;;;;;;5016818;28;20114;-77
2023/12/06 08:16:30;;;;;;;104.33;43.87;;;;;;;;;;5017569;28;20034;-78
2023/12/06 08:18:56;;;;;;;96.37;43.00;;;;;;;;;;5016311;28;20036;-78
2023/12/06 08:21:22;;;;;;;96.03;40.97;;;;;;;;;;5019372;28;20025;-78
2023/12/06 08:23:51;;;;;;;96.03;42.67;;;;;;;;;;5017514;28;20113;-79
2023/12/06 08:26:17;;;;;;;101.80;43.93;;;;;;;;;;5018239;28;20036;-78
2023/12/06 08:28:43;;;;;;;97.37;42.57;;;;;;;;;;5034959;28;21649;-78
2023/12/06 08:31:09;;;;;;;101.40;43.60;;;;;;;;;;5017294;28;20060;-77
2023/12/06 08:33:35;;;;;;;95.43;42.90;;;;;;;;;;5016846;28;20051;-77
2023/12/06 08:36:01;;;;;;;101.97;41.50;;;;;;;;;;5016637;28;20504;-78
2023/12/06 08:38:27;;;;;;;80.43;40.20;;;;;;;;;;5017236;28;20025;-79
2023/12/06 08:40:53;;;;;;;83.83;40.97;;;;;;;;;;5017104;28;20021;-78
2023/12/06 08:43:19;;;;;;;94.77;41.57;;;;;;;;;;5015966;28;20034;-78
2023/12/06 08:45:45;;;;;;;88.13;39.73;;;;;;;;;;5017213;28;20098;-78
2023/12/06 08:48:11;;;;;;;80.90;39.27;;;;;;;;;;5028960;28;21745;-78
2023/12/06 08:50:38;;;;;;;87.53;41.07;;;;;;;;;;5026844;28;20030;-78
2023/12/06 08:53:04;;;;;;;82.20;39.40;;;;;;;;;;5017357;28;20044;-79
2023/12/06 08:55:30;;;;;;;81.20;37.47;;;;;;;;;;5017070;28;20440;-79
2023/12/06 08:57:56;;;;;;;79.53;38.50;;;;;;;;;;5014964;28;20125;-78
2023/12/06 09:00:22;;;;;;;82.40;38.23;;;;;;;;;;5016845;28;20112;-79
2023/12/06 09:02:48;;;;;;;77.00;39.13;;;;;;;;;;5016104;28;20120;-78
2023/12/06 09:05:14;;;;;;;75.33;37.77;;;;;;;;;;5030327;28;20087;-77
2023/12/06 09:07:41;;;;;;;79.23;39.53;;;;;;;;;;5014639;28;20034;-78
2023/12/06 09:10:09;;;;;;;80.80;40.40;;;;;;;;;;5027954;28;20036;-77
2023/12/06 09:12:35;;;;;;;80.47;38.40;;;;;;;;;;5025715;28;20025;-77
2023/12/06 09:15:03;;;;;;;77.70;38.00;;;;;;;;;;5016783;28;20037;-78
2023/12/06 09:17:29;;;;;;;71.70;36.57;;;;;;;;;;5014399;28;20116;-78
2023/12/06 09:19:55;;;;;;;74.00;36.43;;;;;;;;;;5029041;28;20101;-77
2023/12/06 09:22:21;;;;;;;77.63;37.33;;;;;;;;;;5025059;28;20068;-77
2023/12/06 09:24:48;;;;;;;72.10;36.93;;;;;;;;;;5014292;28;20040;-79
2023/12/06 09:27:15;;;;;;;67.73;34.57;;;;;;;;;;5016317;28;20026;-77
2023/12/06 09:29:42;;;;;;;61.17;32.93;;;;;;;;;;5029149;28;20048;-78
2023/12/06 09:32:08;;;;;;;68.03;33.13;;;;;;;;;;5026034;28;20018;-78
2023/12/06 09:34:34;;;;;;;61.87;34.20;;;;;;;;;;5015458;28;20106;-78
2023/12/06 09:37:00;;;;;;;63.00;34.47;;;;;;;;;;5029193;28;20022;-78
2023/12/06 09:39:27;;;;;;;72.47;34.77;;;;;;;;;;5023985;28;20377;-78
2023/12/06 09:41:53;;;;;;;66.87;34.33;;;;;;;;;;5015285;28;21672;-78
2023/12/06 09:44:18;;;;;;;60.53;34.17;;;;;;;;;;5014901;28;20449;-78
2023/12/06 09:46:45;;;;;;;61.83;32.27;;;;;;;;;;5015592;28;20118;-78
2023/12/06 09:49:11;;;;;;;66.27;33.83;;;;;;;;;;5022347;28;20030;-77
2023/12/06 09:51:37;;;;;;;62.53;34.17;;;;;;;;;;5015062;28;20036;-78
2023/12/06 09:54:03;;;;;;;59.87;32.80;;;;;;;;;;5015138;28;20765;-77
2023/12/06 09:56:33;;;;;;;64.80;34.53;;;;;;;;;;5027683;28;20049;-78
2023/12/06 09:58:59;;;;;;;61.87;34.07;;;;;;;;;;5032453;28;20056;-79
2023/12/06 10:01:25;;;;;;;59.57;31.23;;;;;;;;;;5032601;28;20025;-78
2023/12/06 10:03:51;;;;;;;59.97;32.40;;;;;;;;;;5029069;28;20048;-78
2023/12/06 10:06:17;;;;;;;53.83;30.77;;;;;;;;;;5014384;28;20049;-77
2023/12/06 10:08:48;;;;;;;54.83;31.23;;;;;;;;;;5013151;28;20056;-78
2023/12/06 10:11:14;;;;;;;61.43;33.70;;;;;;;;;;5026108;28;20098;-77
2023/12/06 10:13:41;;;;;;;61.27;33.27;;;;;;;;;;5013059;28;20874;-78
2023/12/06 10:16:21;;;;;;;56.63;32.77;;;;;;;;;;5014929;28;20045;-77
2023/12/06 10:18:52;;;;;;;56.87;32.17;;;;;;;;;;5032553;28;20041;-78
2023/12/06 10:21:19;;;;;;;59.87;32.57;;;;;;;;;;5024000;28;20033;-78
2023/12/06 10:24:00;;;;;;;52.40;29.83;;;;;;;;;;5014645;28;20051;-77
2023/12/06 10:26:27;;;;;;;53.53;29.40;;;;;;;;;;5025975;28;20025;-77
2023/12/06 10:28:56;;;;;;;64.67;33.40;;;;;;;;;;5026688;28;20168;-77
2023/12/06 10:31:22;;;;;;;52.67;29.03;;;;;;;;;;5026026;28;20037;-77
2023/12/06 10:33:54;;;;;;;54.13;29.73;;;;;;;;;;5026899;28;20029;-78
2023/12/06 10:36:21;;;;;;;58.20;29.17;;;;;;;;;;5032645;28;20101;-77
2023/12/06 10:38:47;;;;;;;50.80;27.00;;;;;;;;;;5032059;28;20033;-77
2023/12/06 10:41:19;;;;;;;59.70;29.17;;;;;;;;;;5015123;28;20022;-78
2023/12/06 10:43:45;;;;;;;49.77;27.30;;;;;;;;;;5032106;28;20108;-77
2023/12/06 10:46:11;;;;;;;50.57;26.90;;;;;;;;;;5033576;28;20049;-77
2023/12/06 10:48:38;;;;;;;50.30;27.73;;;;;;;;;;5035046;28;20022;-78
2023/12/06 10:51:05;;;;;;;49.83;25.70;;;;;;;;;;5033888;28;20033;-77
2023/12/06 10:53:32;;;;;;;44.13;25.57;;;;;;;;;;5011265;28;20540;-77
2023/12/06 10:56:02;;;;;;;45.60;25.00;;;;;;;;;;5033721;28;20033;-77
2023/12/06 10:58:28;;;;;;;48.33;25.97;;;;;;;;;;5017076;28;20095;-77
2023/12/06 11:00:54;;;;;;;44.40;25.10;;;;;;;;;;5029471;28;20445;-78
2023/12/06 11:06:14;;;;;;;45.40;25.50;;;;;;;;;;5021419;28;20050;-77
2023/12/06 11:08:50;;;;;;;45.85;23.88;;;;;;;;;;5017235;28;20022;-77
2023/12/06 11:11:23;;;;;;;49.30;25.03;;;;;;;;;;5033710;28;20030;-77
2023/12/06 11:13:49;;;;;;;48.63;27.47;;;;;;;;;;5013380;28;20025;-78
2023/12/06 11:16:15;;;;;;;45.80;23.80;;;;;;;;;;5017753;28;20029;-77
2023/12/06 11:18:44;;;;;;;49.27;27.00;;;;;;;;;;5034724;28;20075;-78
2023/12/06 11:21:15;;;;;;;38.07;22.27;;;;;;;;;;5017541;28;20092;-77
2023/12/06 11:23:41;;;;;;;45.87;25.37;;;;;;;;;;5027924;28;20442;-78
2023/12/06 11:26:08;;;;;;;42.90;24.53;;;;;;;;;;5032095;28;20030;-77
2023/12/06 11:28:40;;;;;;;44.77;24.50;;;;;;;;;;5013561;28;20030;-78
2023/12/06 11:31:12;;;;;;;45.30;25.40;;;;;;;;;;5020191;28;20061;-78
2023/12/06 11:33:38;;;;;;;50.83;26.80;;;;;;;;;;5013901;28;20037;-78
2023/12/06 11:36:07;;;;;;;45.80;28.43;;;;;;;;;;5036986;28;20346;-77
2023/12/06 11:38:39;;;;;;;45.17;26.53;;;;;;;;;;5037253;28;20385;-77
2023/12/06 11:41:09;;;;;;;48.53;26.40;;;;;;;;;;5011343;28;20026;-78
2023/12/06 11:43:37;;;;;;;55.13;26.73;;;;;;;;;;5010328;28;20055;-78
2023/12/06 11:46:03;;;;;;;53.50;29.53;;;;;;;;;;5018173;28;20018;-78
2023/12/06 11:48:30;;;;;;;52.60;27.63;;;;;;;;;;5036774;28;20454;-78
2023/12/06 11:50:57;;;;;;;47.90;27.70;;;;;;;;;;5020421;28;20119;-77
2023/12/06 11:53:30;;;;;;;51.30;28.10;;;;;;;;;;5021087;28;20021;-77
2023/12/06 11:55:56;;;;;;;47.78;27.73;;;;;;;;;;5012734;28;20036;-77
2023/12/06 11:58:22;;;;;;;49.77;25.80;;;;;;;;;;5020426;28;20045;-77
2023/12/06 12:00:49;;;;;;;43.47;24.77;;;;;;;;;;5020632;28;20033;-78
2023/12/06 12:03:15;;;;;;;41.90;23.57;;;;;;;;;;5011971;28;20018;-78
2023/12/06 12:05:42;;;;;;;40.87;22.90;;;;;;;;;;5020118;28;20036;-77
2023/12/06 12:08:12;;;;;;;39.10;21.73;;;;;;;;;;5014648;28;20075;-77
2023/12/06 12:10:40;;;;;;;39.63;23.17;;;;;;;;;;5036527;28;20108;-77
2023/12/06 12:13:15;;;;;;;39.70;23.17;;;;;;;;;;5017222;28;20083;-77
2023/12/06 12:15:41;;;;;;;37.87;20.70;;;;;;;;;;5017264;28;20056;-77
2023/12/06 12:18:07;;;;;;;44.33;23.50;;;;;;;;;;5018967;28;20095;-78
2023/12/06 12:20:36;;;;;;;36.93;21.87;;;;;;;;;;5017087;28;20449;-78
2023/12/06 12:23:05;;;;;;;37.73;21.43;;;;;;;;;;5030724;28;20030;-78
2023/12/06 12:25:31;;;;;;;40.73;20.40;;;;;;;;;;5015925;28;20030;-77
2023/12/06 12:27:59;;;;;;;38.53;20.63;;;;;;;;;;5018819;28;20576;-78
2023/12/06 12:30:25;;;;;;;36.87;21.73;;;;;;;;;;5030814;28;20033;-77
2023/12/06 12:32:55;;;;;;;40.97;21.80;;;;;;;;;;5019757;28;20033;-78
2023/12/06 12:35:23;;;;;;;37.73;20.97;;;;;;;;;;5028582;28;20041;-78
2023/12/06 12:37:54;;;;;;;31.73;20.30;;;;;;;;;;5015128;28;20496;-77
2023/12/06 12:40:20;;;;;;;36.50;21.23;;;;;;;;;;5016552;28;20025;-77
2023/12/06 12:42:46;;;;;;;34.07;18.27;;;;;;;;;;5014189;28;20045;-77
2023/12/06 12:45:17;;;;;;;32.77;18.57;;;;;;;;;;5016865;28;20037;-77
2023/12/06 12:47:43;;;;;;;35.73;19.20;;;;;;;;;;5034071;28;20017;-77
2023/12/06 12:50:10;;;;;;;33.73;19.77;;;;;;;;;;5029768;28;20026;-78
2023/12/06 12:52:40;;;;;;;33.90;18.30;;;;;;;;;;5016608;28;21884;-77
2023/12/06 12:55:06;;;;;;;38.77;20.43;;;;;;;;;;5032634;28;20068;-78
2023/12/06 12:57:45;;;;;;;38.53;20.53;;;;;;;;;;5016118;28;20029;-78
2023/12/06 13:00:24;;;;;;;35.70;18.97;;;;;;;;;;5015869;28;20370;-79
2023/12/06 13:02:51;;;;;;;34.70;20.20;;;;;;;;;;5016166;28;20033;-78
2023/12/06 13:05:17;;;;;;;38.67;21.03;;;;;;;;;;5016580;28;20105;-78
2023/12/06 13:07:44;;;;;;;37.80;18.40;;;;;;;;;;5016611;28;20033;-77
2023/12/06 13:10:14;;;;;;;33.70;19.63;;;;;;;;;;5016206;28;20039;-78
2023/12/06 13:12:40;;;;;;;37.70;18.40;;;;;;;;;;5015822;28;20036;-77
2023/12/06 13:15:10;;;;;;;31.23;18.40;;;;;;;;;;5032896;28;20030;-78
2023/12/06 13:17:36;;;;;;;34.47;19.33;;;;;;;;;;5015876;28;20029;-78
2023/12/06 13:20:03;;;;;;;30.67;19.40;;;;;;;;;;5015472;28;20117;-78
2023/12/06 13:22:29;;;;;;;32.30;17.60;;;;;;;;;;5016457;28;20041;-81
2023/12/06 13:24:55;;;;;;;37.63;17.70;;;;;;;;;;5015212;28;20354;-79
2023/12/06 13:27:21;;;;;;;30.67;16.23;;;;;;;;;;5014846;28;20133;-77
2023/12/06 13:29:48;;;;;;;29.30;16.40;;;;;;;;;;5014257;28;20033;-77
2023/12/06 13:32:14;;;;;;;26.53;16.13;;;;;;;;;;5013734;28;20036;-78
2023/12/06 13:34:44;;;;;;;30.30;15.37;;;;;;;;;;5016141;28;20025;-78
2023/12/06 13:37:13;;;;;;;32.77;15.53;;;;;;;;;;5014859;28;20036;-79
2023/12/06 13:39:43;;;;;;;27.60;14.27;;;;;;;;;;5015163;28;20021;-78
2023/12/06 13:42:13;;;;;;;22.53;12.80;;;;;;;;;;5015720;28;20025;-77
2023/12/06 13:44:39;;;;;;;24.70;13.70;;;;;;;;;;5015638;28;20025;-78
2023/12/06 13:47:05;;;;;;;23.80;13.37;;;;;;;;;;5032473;28;20025;-77
2023/12/06 13:49:31;;;;;;;22.03;11.87;;;;;;;;;;5015169;28;20052;-77
2023/12/06 13:52:00;;;;;;;18.17;11.97;;;;;;;;;;5029874;28;20454;-78
2023/12/06 13:54:26;;;;;;;20.77;11.63;;;;;;;;;;5013623;28;20049;-78
2023/12/06 13:56:52;;;;;;;19.53;11.47;;;;;;;;;;5015215;28;20044;-78
2023/12/06 13:59:18;;;;;;;20.80;11.73;;;;;;;;;;5031658;28;20021;-78
2023/12/06 14:01:44;;;;;;;19.23;10.60;;;;;;;;;;5014855;28;20029;-77
2023/12/06 14:04:10;;;;;;;17.97;10.83;;;;;;;;;;5015056;28;20065;-78
2023/12/06 14:06:41;;;;;;;22.33;10.83;;;;;;;;;;5015341;28;20060;-78
2023/12/06 14:09:08;;;;;;;20.60;11.43;;;;;;;;;;5015275;28;20025;-78